sensor_id;sensor_type;location;lat;lon;timestamp;P1;durP1;ratioP1;P2;durP2;ratioP2
22786;SDS011;63134;52.020;4.714;2023-03-05T00:02:00;11.77;;;1.70;;
22786;SDS011;63134;52.020;4.714;2023-03-05T00:04:45;6.45;;;1.80;;
22786;SDS011;63134;52.020;4.714;2023-03-05T00:07:31;6.00;;;1.98;;
22786;SDS011;63134;52.020;4.714;2023-03-05T00:10:16;11.82;;;1.95;;
22786;SDS011;63134;52.020;4.714;2023-03-05T00:13:02;11.73;;;2.25;;
22786;SDS011;63134;52.020;4.714;2023-03-05T00:15:47;8.38;;;2.40;;
22786;SDS011;63134;52.020;4.714;2023-03-05T00:18:33;11.25;;;2.00;;
22786;SDS011;63134;52.020;4.714;2023-03-05T00:21:20;10.93;;;2.20;;
22786;SDS011;63134;52.020;4.714;2023-03-05T00:24:14;14.05;;;2.65;;
22786;SDS011;63134;52.020;4.714;2023-03-05T00:27:01;11.98;;;2.17;;
22786;SDS011;63134;52.020;4.714;2023-03-05T00:29:51;13.20;;;2.25;;
22786;SDS011;63134;52.020;4.714;2023-03-05T00:32:36;18.15;;;2.78;;
22786;SDS011;63134;52.020;4.714;2023-03-05T00:35:22;11.85;;;2.40;;
22786;SDS011;63134;52.020;4.714;2023-03-05T00:38:07;10.45;;;2.22;;
22786;SDS011;63134;52.020;4.714;2023-03-05T00:40:53;14.77;;;2.47;;
22786;SDS011;63134;52.020;4.714;2023-03-05T00:43:39;8.30;;;2.10;;
22786;SDS011;63134;52.020;4.714;2023-03-05T00:46:24;12.05;;;2.85;;
22786;SDS011;63134;52.020;4.714;2023-03-05T00:49:14;20.40;;;2.50;;
22786;SDS011;63134;52.020;4.714;2023-03-05T00:52:00;14.82;;;2.60;;
22786;SDS011;63134;52.020;4.714;2023-03-05T00:54:45;15.30;;;2.53;;
22786;SDS011;63134;52.020;4.714;2023-03-05T00:57:31;11.52;;;2.83;;
22786;SDS011;63134;52.020;4.714;2023-03-05T01:00:17;17.38;;;2.88;;
22786;SDS011;63134;52.020;4.714;2023-03-05T01:03:03;13.45;;;3.40;;
22786;SDS011;63134;52.020;4.714;2023-03-05T01:05:49;13.48;;;2.85;;
22786;SDS011;63134;52.020;4.714;2023-03-05T01:08:34;12.80;;;3.15;;
22786;SDS011;63134;52.020;4.714;2023-03-05T01:11:20;16.55;;;3.35;;
22786;SDS011;63134;52.020;4.714;2023-03-05T01:14:06;20.35;;;3.20;;
22786;SDS011;63134;52.020;4.714;2023-03-05T01:16:53;17.10;;;3.67;;
22786;SDS011;63134;52.020;4.714;2023-03-05T01:19:38;21.27;;;3.40;;
22786;SDS011;63134;52.020;4.714;2023-03-05T01:22:23;15.18;;;3.10;;
22786;SDS011;63134;52.020;4.714;2023-03-05T01:25:09;17.33;;;3.80;;
22786;SDS011;63134;52.020;4.714;2023-03-05T01:27:56;20.30;;;3.45;;
22786;SDS011;63134;52.020;4.714;2023-03-05T01:30:42;18.25;;;3.20;;
22786;SDS011;63134;52.020;4.714;2023-03-05T01:33:31;15.23;;;3.65;;
22786;SDS011;63134;52.020;4.714;2023-03-05T01:36:17;24.75;;;3.65;;
22786;SDS011;63134;52.020;4.714;2023-03-05T01:39:02;17.33;;;3.88;;
22786;SDS011;63134;52.020;4.714;2023-03-05T01:41:48;11.35;;;2.97;;
22786;SDS011;63134;52.020;4.714;2023-03-05T01:44:36;15.15;;;3.97;;
22786;SDS011;63134;52.020;4.714;2023-03-05T01:47:22;18.05;;;2.90;;
22786;SDS011;63134;52.020;4.714;2023-03-05T01:50:08;10.50;;;2.65;;
22786;SDS011;63134;52.020;4.714;2023-03-05T01:53:01;16.48;;;3.15;;
22786;SDS011;63134;52.020;4.714;2023-03-05T01:55:49;13.07;;;3.95;;
22786;SDS011;63134;52.020;4.714;2023-03-05T01:58:35;18.50;;;3.67;;
22786;SDS011;63134;52.020;4.714;2023-03-05T02:01:23;12.95;;;2.85;;
22786;SDS011;63134;52.020;4.714;2023-03-05T02:04:09;11.75;;;2.88;;
22786;SDS011;63134;52.020;4.714;2023-03-05T02:06:58;14.45;;;2.83;;
22786;SDS011;63134;52.020;4.714;2023-03-05T02:09:44;12.73;;;3.45;;
22786;SDS011;63134;52.020;4.714;2023-03-05T02:12:30;11.88;;;2.72;;
22786;SDS011;63134;52.020;4.714;2023-03-05T02:15:15;11.20;;;3.13;;
22786;SDS011;63134;52.020;4.714;2023-03-05T02:18:01;15.45;;;3.40;;
22786;SDS011;63134;52.020;4.714;2023-03-05T02:23:40;14.88;;;3.08;;
22786;SDS011;63134;52.020;4.714;2023-03-05T02:26:31;14.90;;;3.35;;
22786;SDS011;63134;52.020;4.714;2023-03-05T02:29:17;16.25;;;3.42;;
22786;SDS011;63134;52.020;4.714;2023-03-05T02:32:04;14.27;;;3.63;;
22786;SDS011;63134;52.020;4.714;2023-03-05T02:34:50;16.83;;;3.70;;
22786;SDS011;63134;52.020;4.714;2023-03-05T02:37:36;13.88;;;3.35;;
22786;SDS011;63134;52.020;4.714;2023-03-05T02:40:23;15.05;;;3.47;;
22786;SDS011;63134;52.020;4.714;2023-03-05T02:43:09;12.05;;;3.45;;
22786;SDS011;63134;52.020;4.714;2023-03-05T02:45:54;16.27;;;3.47;;
22786;SDS011;63134;52.020;4.714;2023-03-05T02:48:40;12.30;;;4.30;;
22786;SDS011;63134;52.020;4.714;2023-03-05T02:51:29;14.02;;;3.45;;
22786;SDS011;63134;52.020;4.714;2023-03-05T02:54:15;13.25;;;3.40;;
22786;SDS011;63134;52.020;4.714;2023-03-05T02:57:01;21.70;;;3.85;;
22786;SDS011;63134;52.020;4.714;2023-03-05T02:59:46;12.55;;;3.58;;
22786;SDS011;63134;52.020;4.714;2023-03-05T03:02:33;13.02;;;3.65;;
22786;SDS011;63134;52.020;4.714;2023-03-05T03:05:18;22.25;;;4.93;;
22786;SDS011;63134;52.020;4.714;2023-03-05T03:08:03;15.85;;;3.30;;
22786;SDS011;63134;52.020;4.714;2023-03-05T03:10:49;18.90;;;3.88;;
22786;SDS011;63134;52.020;4.714;2023-03-05T03:13:35;14.20;;;3.60;;
22786;SDS011;63134;52.020;4.714;2023-03-05T03:16:20;11.88;;;3.70;;
22786;SDS011;63134;52.020;4.714;2023-03-05T03:19:05;16.67;;;4.30;;
22786;SDS011;63134;52.020;4.714;2023-03-05T03:21:53;13.70;;;3.65;;
22786;SDS011;63134;52.020;4.714;2023-03-05T03:24:39;15.38;;;3.85;;
22786;SDS011;63134;52.020;4.714;2023-03-05T03:27:27;19.27;;;3.75;;
22786;SDS011;63134;52.020;4.714;2023-03-05T03:30:13;15.23;;;3.63;;
22786;SDS011;63134;52.020;4.714;2023-03-05T03:32:59;14.60;;;4.68;;
22786;SDS011;63134;52.020;4.714;2023-03-05T03:35:44;18.63;;;3.90;;
22786;SDS011;63134;52.020;4.714;2023-03-05T03:38:30;18.25;;;3.88;;
22786;SDS011;63134;52.020;4.714;2023-03-05T03:41:16;13.90;;;3.40;;
22786;SDS011;63134;52.020;4.714;2023-03-05T03:44:02;11.05;;;3.30;;
22786;SDS011;63134;52.020;4.714;2023-03-05T03:46:51;16.00;;;3.42;;
22786;SDS011;63134;52.020;4.714;2023-03-05T03:49:38;11.75;;;3.60;;
22786;SDS011;63134;52.020;4.714;2023-03-05T03:52:23;7.20;;;2.75;;
22786;SDS011;63134;52.020;4.714;2023-03-05T03:55:10;14.25;;;3.65;;
22786;SDS011;63134;52.020;4.714;2023-03-05T03:57:58;7.93;;;2.70;;
22786;SDS011;63134;52.020;4.714;2023-03-05T04:00:44;7.57;;;2.30;;
22786;SDS011;63134;52.020;4.714;2023-03-05T04:03:29;9.40;;;2.15;;
22786;SDS011;63134;52.020;4.714;2023-03-05T04:06:15;6.57;;;2.45;;
22786;SDS011;63134;52.020;4.714;2023-03-05T04:09:00;8.38;;;2.25;;
22786;SDS011;63134;52.020;4.714;2023-03-05T04:11:45;8.35;;;2.10;;
22786;SDS011;63134;52.020;4.714;2023-03-05T04:14:31;8.57;;;2.35;;
22786;SDS011;63134;52.020;4.714;2023-03-05T04:17:17;6.78;;;1.90;;
22786;SDS011;63134;52.020;4.714;2023-03-05T04:20:03;8.02;;;1.90;;
22786;SDS011;63134;52.020;4.714;2023-03-05T04:22:50;8.52;;;1.80;;
22786;SDS011;63134;52.020;4.714;2023-03-05T04:25:36;9.77;;;2.63;;
22786;SDS011;63134;52.020;4.714;2023-03-05T04:28:21;11.13;;;3.65;;
22786;SDS011;63134;52.020;4.714;2023-03-05T04:31:07;10.18;;;3.85;;
22786;SDS011;63134;52.020;4.714;2023-03-05T04:33:53;12.07;;;3.75;;
22786;SDS011;63134;52.020;4.714;2023-03-05T04:36:38;12.68;;;3.35;;
22786;SDS011;63134;52.020;4.714;2023-03-05T04:39:24;10.10;;;3.53;;
22786;SDS011;63134;52.020;4.714;2023-03-05T04:42:10;10.68;;;4.18;;
22786;SDS011;63134;52.020;4.714;2023-03-05T04:44:55;12.65;;;4.05;;
22786;SDS011;63134;52.020;4.714;2023-03-05T04:47:41;11.77;;;4.25;;
22786;SDS011;63134;52.020;4.714;2023-03-05T04:50:29;10.00;;;3.97;;
22786;SDS011;63134;52.020;4.714;2023-03-05T04:53:14;13.45;;;4.40;;
22786;SDS011;63134;52.020;4.714;2023-03-05T04:56:00;10.77;;;4.10;;
22786;SDS011;63134;52.020;4.714;2023-03-05T04:58:45;17.35;;;4.75;;
22786;SDS011;63134;52.020;4.714;2023-03-05T05:01:31;6.03;;;3.30;;
22786;SDS011;63134;52.020;4.714;2023-03-05T05:04:19;12.20;;;3.67;;
22786;SDS011;63134;52.020;4.714;2023-03-05T05:07:04;13.40;;;3.55;;
22786;SDS011;63134;52.020;4.714;2023-03-05T05:09:51;11.18;;;3.88;;
22786;SDS011;63134;52.020;4.714;2023-03-05T05:12:37;11.18;;;3.90;;
22786;SDS011;63134;52.020;4.714;2023-03-05T05:15:22;13.60;;;3.58;;
22786;SDS011;63134;52.020;4.714;2023-03-05T05:18:08;13.65;;;2.70;;
22786;SDS011;63134;52.020;4.714;2023-03-05T05:20:54;10.48;;;2.65;;
22786;SDS011;63134;52.020;4.714;2023-03-05T05:23:39;8.95;;;1.70;;
22786;SDS011;63134;52.020;4.714;2023-03-05T05:26:25;3.85;;;1.70;;
22786;SDS011;63134;52.020;4.714;2023-03-05T05:29:10;2.17;;;1.48;;
22786;SDS011;63134;52.020;4.714;2023-03-05T05:31:58;7.35;;;1.60;;
22786;SDS011;63134;52.020;4.714;2023-03-05T05:34:44;7.35;;;1.70;;
22786;SDS011;63134;52.020;4.714;2023-03-05T05:37:32;4.30;;;1.40;;
22786;SDS011;63134;52.020;4.714;2023-03-05T05:40:18;4.75;;;1.52;;
22786;SDS011;63134;52.020;4.714;2023-03-05T05:43:07;6.25;;;1.58;;
22786;SDS011;63134;52.020;4.714;2023-03-05T05:45:53;4.32;;;1.65;;
22786;SDS011;63134;52.020;4.714;2023-03-05T05:48:39;8.02;;;1.50;;
22786;SDS011;63134;52.020;4.714;2023-03-05T05:51:24;5.32;;;1.88;;
22786;SDS011;63134;52.020;4.714;2023-03-05T05:54:11;2.08;;;1.20;;
22786;SDS011;63134;52.020;4.714;2023-03-05T05:56:57;2.97;;;1.27;;
22786;SDS011;63134;52.020;4.714;2023-03-05T05:59:43;4.45;;;1.60;;
22786;SDS011;63134;52.020;4.714;2023-03-05T06:02:28;8.52;;;1.90;;
22786;SDS011;63134;52.020;4.714;2023-03-05T06:05:13;5.05;;;2.28;;
22786;SDS011;63134;52.020;4.714;2023-03-05T06:07:59;12.02;;;2.83;;
22786;SDS011;63134;52.020;4.714;2023-03-05T06:10:52;6.88;;;2.50;;
22786;SDS011;63134;52.020;4.714;2023-03-05T06:13:49;13.77;;;3.90;;
22786;SDS011;63134;52.020;4.714;2023-03-05T06:16:39;11.65;;;3.97;;
22786;SDS011;63134;52.020;4.714;2023-03-05T06:19:24;9.00;;;3.83;;
22786;SDS011;63134;52.020;4.714;2023-03-05T06:22:10;7.78;;;3.05;;
22786;SDS011;63134;52.020;4.714;2023-03-05T06:24:56;8.32;;;3.20;;
22786;SDS011;63134;52.020;4.714;2023-03-05T06:27:42;11.32;;;3.75;;
22786;SDS011;63134;52.020;4.714;2023-03-05T06:30:27;7.18;;;2.92;;
22786;SDS011;63134;52.020;4.714;2023-03-05T06:33:15;6.80;;;2.45;;
22786;SDS011;63134;52.020;4.714;2023-03-05T06:36:02;5.60;;;2.92;;
22786;SDS011;63134;52.020;4.714;2023-03-05T06:38:48;10.82;;;3.28;;
22786;SDS011;63134;52.020;4.714;2023-03-05T06:41:37;9.00;;;3.15;;
22786;SDS011;63134;52.020;4.714;2023-03-05T06:44:23;10.43;;;3.75;;
22786;SDS011;63134;52.020;4.714;2023-03-05T06:47:14;8.68;;;3.55;;
22786;SDS011;63134;52.020;4.714;2023-03-05T06:50:03;7.78;;;2.90;;
22786;SDS011;63134;52.020;4.714;2023-03-05T06:52:49;6.75;;;3.08;;
22786;SDS011;63134;52.020;4.714;2023-03-05T06:55:35;4.63;;;2.40;;
22786;SDS011;63134;52.020;4.714;2023-03-05T06:58:23;9.02;;;2.67;;
22786;SDS011;63134;52.020;4.714;2023-03-05T07:01:09;7.20;;;1.70;;
22786;SDS011;63134;52.020;4.714;2023-03-05T07:03:54;6.05;;;1.67;;
22786;SDS011;63134;52.020;4.714;2023-03-05T07:06:43;11.00;;;1.90;;
22786;SDS011;63134;52.020;4.714;2023-03-05T07:09:29;10.82;;;2.15;;
22786;SDS011;63134;52.020;4.714;2023-03-05T07:12:14;1.58;;;1.38;;
22786;SDS011;63134;52.020;4.714;2023-03-05T07:15:00;3.33;;;1.98;;
22786;SDS011;63134;52.020;4.714;2023-03-05T07:17:46;7.85;;;1.95;;
22786;SDS011;63134;52.020;4.714;2023-03-05T07:20:34;5.88;;;1.60;;
22786;SDS011;63134;52.020;4.714;2023-03-05T07:23:21;2.47;;;1.40;;
22786;SDS011;63134;52.020;4.714;2023-03-05T07:26:06;5.57;;;1.90;;
22786;SDS011;63134;52.020;4.714;2023-03-05T07:28:52;5.28;;;1.70;;
22786;SDS011;63134;52.020;4.714;2023-03-05T07:31:38;5.88;;;1.70;;
22786;SDS011;63134;52.020;4.714;2023-03-05T07:34:24;3.78;;;1.73;;
22786;SDS011;63134;52.020;4.714;2023-03-05T07:37:12;4.88;;;1.80;;
22786;SDS011;63134;52.020;4.714;2023-03-05T07:39:58;5.10;;;1.42;;
22786;SDS011;63134;52.020;4.714;2023-03-05T07:42:43;2.63;;;1.30;;
22786;SDS011;63134;52.020;4.714;2023-03-05T07:45:39;6.93;;;1.67;;
22786;SDS011;63134;52.020;4.714;2023-03-05T07:48:27;6.07;;;2.13;;
22786;SDS011;63134;52.020;4.714;2023-03-05T07:51:15;7.10;;;1.38;;
22786;SDS011;63134;52.020;4.714;2023-03-05T07:54:04;7.22;;;1.40;;
22786;SDS011;63134;52.020;4.714;2023-03-05T07:56:50;4.53;;;1.60;;
22786;SDS011;63134;52.020;4.714;2023-03-05T07:59:38;5.15;;;1.60;;
22786;SDS011;63134;52.020;4.714;2023-03-05T08:02:24;4.20;;;1.75;;
22786;SDS011;63134;52.020;4.714;2023-03-05T08:05:09;4.57;;;1.55;;
22786;SDS011;63134;52.020;4.714;2023-03-05T08:07:55;3.20;;;1.25;;
22786;SDS011;63134;52.020;4.714;2023-03-05T08:10:41;6.70;;;1.35;;
22786;SDS011;63134;52.020;4.714;2023-03-05T08:13:26;3.50;;;1.42;;
22786;SDS011;63134;52.020;4.714;2023-03-05T08:16:13;4.43;;;1.63;;
22786;SDS011;63134;52.020;4.714;2023-03-05T08:19:06;6.28;;;1.40;;
22786;SDS011;63134;52.020;4.714;2023-03-05T08:21:51;5.60;;;1.35;;
22786;SDS011;63134;52.020;4.714;2023-03-05T08:24:41;6.05;;;1.50;;
22786;SDS011;63134;52.020;4.714;2023-03-05T08:27:26;6.18;;;1.40;;
22786;SDS011;63134;52.020;4.714;2023-03-05T08:30:16;4.90;;;1.35;;
22786;SDS011;63134;52.020;4.714;2023-03-05T08:33:04;4.28;;;1.45;;
22786;SDS011;63134;52.020;4.714;2023-03-05T08:35:49;4.50;;;1.20;;
22786;SDS011;63134;52.020;4.714;2023-03-05T08:38:35;5.03;;;1.55;;
22786;SDS011;63134;52.020;4.714;2023-03-05T08:41:20;5.38;;;1.40;;
22786;SDS011;63134;52.020;4.714;2023-03-05T08:44:06;3.60;;;1.20;;
22786;SDS011;63134;52.020;4.714;2023-03-05T08:46:52;6.13;;;1.45;;
22786;SDS011;63134;52.020;4.714;2023-03-05T08:49:37;2.67;;;1.17;;
22786;SDS011;63134;52.020;4.714;2023-03-05T08:52:37;6.00;;;1.60;;
22786;SDS011;63134;52.020;4.714;2023-03-05T08:55:22;4.43;;;1.33;;
22786;SDS011;63134;52.020;4.714;2023-03-05T08:58:08;3.97;;;1.42;;
22786;SDS011;63134;52.020;4.714;2023-03-05T09:00:53;6.00;;;1.38;;
22786;SDS011;63134;52.020;4.714;2023-03-05T09:03:44;5.80;;;1.30;;
22786;SDS011;63134;52.020;4.714;2023-03-05T09:06:32;9.27;;;1.20;;
22786;SDS011;63134;52.020;4.714;2023-03-05T09:09:24;3.72;;;1.30;;
22786;SDS011;63134;52.020;4.714;2023-03-05T09:12:09;3.92;;;1.33;;
22786;SDS011;63134;52.020;4.714;2023-03-05T09:14:56;5.55;;;1.23;;
22786;SDS011;63134;52.020;4.714;2023-03-05T09:17:43;5.65;;;1.45;;
22786;SDS011;63134;52.020;4.714;2023-03-05T09:20:29;3.63;;;1.35;;
22786;SDS011;63134;52.020;4.714;2023-03-05T09:23:15;5.40;;;1.10;;
22786;SDS011;63134;52.020;4.714;2023-03-05T09:26:00;6.32;;;1.48;;
22786;SDS011;63134;52.020;4.714;2023-03-05T09:28:48;10.48;;;1.92;;
22786;SDS011;63134;52.020;4.714;2023-03-05T09:31:37;6.65;;;1.58;;
22786;SDS011;63134;52.020;4.714;2023-03-05T09:34:22;10.10;;;1.70;;
22786;SDS011;63134;52.020;4.714;2023-03-05T09:37:08;8.10;;;1.52;;
22786;SDS011;63134;52.020;4.714;2023-03-05T09:39:54;3.40;;;1.40;;
22786;SDS011;63134;52.020;4.714;2023-03-05T09:45:50;3.67;;;1.55;;
22786;SDS011;63134;52.020;4.714;2023-03-05T09:48:58;7.07;;;1.40;;
22786;SDS011;63134;52.020;4.714;2023-03-05T09:52:12;3.95;;;1.48;;
22786;SDS011;63134;52.020;4.714;2023-03-05T09:55:04;6.05;;;1.70;;
22786;SDS011;63134;52.020;4.714;2023-03-05T09:58:01;4.07;;;1.00;;
22786;SDS011;63134;52.020;4.714;2023-03-05T10:01:02;6.53;;;1.60;;
22786;SDS011;63134;52.020;4.714;2023-03-05T10:09:59;3.10;;;1.25;;
22786;SDS011;63134;52.020;4.714;2023-03-05T10:12:57;3.10;;;1.15;;
22786;SDS011;63134;52.020;4.714;2023-03-05T10:19:08;3.17;;;1.20;;
22786;SDS011;63134;52.020;4.714;2023-03-05T10:28:16;2.63;;;0.90;;
22786;SDS011;63134;52.020;4.714;2023-03-05T10:34:28;0.93;;;0.88;;
22786;SDS011;63134;52.020;4.714;2023-03-05T10:37:43;1.98;;;0.80;;
22786;SDS011;63134;52.020;4.714;2023-03-05T10:40:47;2.88;;;1.63;;
22786;SDS011;63134;52.020;4.714;2023-03-05T10:43:38;3.10;;;1.80;;
22786;SDS011;63134;52.020;4.714;2023-03-05T10:46:35;2.42;;;1.90;;
22786;SDS011;63134;52.020;4.714;2023-03-05T10:49:29;1.27;;;0.95;;
22786;SDS011;63134;52.020;4.714;2023-03-05T10:52:19;1.95;;;0.90;;
22786;SDS011;63134;52.020;4.714;2023-03-05T10:55:13;1.08;;;1.00;;
22786;SDS011;63134;52.020;4.714;2023-03-05T10:58:00;4.70;;;1.08;;
22786;SDS011;63134;52.020;4.714;2023-03-05T11:01:01;1.50;;;1.00;;
22786;SDS011;63134;52.020;4.714;2023-03-05T11:03:54;2.22;;;1.08;;
22786;SDS011;63134;52.020;4.714;2023-03-05T11:06:42;4.35;;;1.52;;
22786;SDS011;63134;52.020;4.714;2023-03-05T11:09:32;1.92;;;0.88;;
22786;SDS011;63134;52.020;4.714;2023-03-05T11:12:24;3.97;;;0.88;;
22786;SDS011;63134;52.020;4.714;2023-03-05T11:18:18;3.78;;;1.08;;
22786;SDS011;63134;52.020;4.714;2023-03-05T11:21:11;3.20;;;0.80;;
22786;SDS011;63134;52.020;4.714;2023-03-05T11:24:09;3.90;;;1.13;;
22786;SDS011;63134;52.020;4.714;2023-03-05T11:26:57;2.65;;;0.80;;
22786;SDS011;63134;52.020;4.714;2023-03-05T11:29:47;2.08;;;1.00;;
22786;SDS011;63134;52.020;4.714;2023-03-05T11:32:33;8.07;;;1.60;;
22786;SDS011;63134;52.020;4.714;2023-03-05T11:35:29;4.90;;;1.95;;
22786;SDS011;63134;52.020;4.714;2023-03-05T11:38:24;2.58;;;0.80;;
22786;SDS011;63134;52.020;4.714;2023-03-05T11:41:11;1.65;;;1.05;;
22786;SDS011;63134;52.020;4.714;2023-03-05T11:43:57;6.32;;;2.05;;
22786;SDS011;63134;52.020;4.714;2023-03-05T11:47:32;2.40;;;1.20;;
22786;SDS011;63134;52.020;4.714;2023-03-05T11:53:35;4.28;;;1.27;;
22786;SDS011;63134;52.020;4.714;2023-03-05T11:59:27;4.28;;;1.13;;
22786;SDS011;63134;52.020;4.714;2023-03-05T12:02:24;6.67;;;1.27;;
22786;SDS011;63134;52.020;4.714;2023-03-05T12:05:17;4.45;;;1.30;;
22786;SDS011;63134;52.020;4.714;2023-03-05T12:08:08;3.67;;;1.30;;
22786;SDS011;63134;52.020;4.714;2023-03-05T12:11:05;3.05;;;1.13;;
22786;SDS011;63134;52.020;4.714;2023-03-05T12:14:08;4.15;;;1.20;;
22786;SDS011;63134;52.020;4.714;2023-03-05T12:17:21;6.20;;;1.00;;
22786;SDS011;63134;52.020;4.714;2023-03-05T12:23:29;2.67;;;0.98;;
22786;SDS011;63134;52.020;4.714;2023-03-05T12:29:51;5.57;;;1.10;;
22786;SDS011;63134;52.020;4.714;2023-03-05T12:35:29;4.50;;;1.10;;
22786;SDS011;63134;52.020;4.714;2023-03-05T12:38:28;2.83;;;1.08;;
22786;SDS011;63134;52.020;4.714;2023-03-05T12:44:16;4.00;;;1.00;;
22786;SDS011;63134;52.020;4.714;2023-03-05T12:47:17;4.93;;;1.08;;
22786;SDS011;63134;52.020;4.714;2023-03-05T12:53:12;2.97;;;0.90;;
22786;SDS011;63134;52.020;4.714;2023-03-05T12:56:01;4.03;;;2.47;;
22786;SDS011;63134;52.020;4.714;2023-03-05T12:58:57;3.58;;;0.90;;
22786;SDS011;63134;52.020;4.714;2023-03-05T13:01:46;3.53;;;1.20;;
22786;SDS011;63134;52.020;4.714;2023-03-05T13:04:38;4.20;;;1.08;;
22786;SDS011;63134;52.020;4.714;2023-03-05T13:07:31;2.35;;;0.90;;
22786;SDS011;63134;52.020;4.714;2023-03-05T13:10:21;3.22;;;0.90;;
22786;SDS011;63134;52.020;4.714;2023-03-05T13:13:11;4.80;;;1.23;;
22786;SDS011;63134;52.020;4.714;2023-03-05T13:16:00;4.47;;;0.80;;
22786;SDS011;63134;52.020;4.714;2023-03-05T13:18:47;3.33;;;0.85;;
22786;SDS011;63134;52.020;4.714;2023-03-05T13:21:34;2.90;;;1.20;;
22786;SDS011;63134;52.020;4.714;2023-03-05T13:24:20;2.40;;;1.10;;
22786;SDS011;63134;52.020;4.714;2023-03-05T13:30:26;3.58;;;1.08;;
22786;SDS011;63134;52.020;4.714;2023-03-05T13:33:16;2.97;;;0.60;;
22786;SDS011;63134;52.020;4.714;2023-03-05T13:36:05;3.10;;;0.98;;
22786;SDS011;63134;52.020;4.714;2023-03-05T13:38:51;2.17;;;0.90;;
22786;SDS011;63134;52.020;4.714;2023-03-05T13:41:38;4.43;;;1.25;;
22786;SDS011;63134;52.020;4.714;2023-03-05T13:44:23;5.25;;;1.10;;
22786;SDS011;63134;52.020;4.714;2023-03-05T13:50:06;5.22;;;1.08;;
22786;SDS011;63134;52.020;4.714;2023-03-05T13:53:12;3.78;;;0.80;;
22786;SDS011;63134;52.020;4.714;2023-03-05T13:56:04;3.72;;;1.15;;
22786;SDS011;63134;52.020;4.714;2023-03-05T13:58:55;2.35;;;1.17;;
22786;SDS011;63134;52.020;4.714;2023-03-05T14:01:41;2.78;;;1.00;;
22786;SDS011;63134;52.020;4.714;2023-03-05T14:04:40;4.72;;;1.00;;
22786;SDS011;63134;52.020;4.714;2023-03-05T14:07:31;3.15;;;1.10;;
22786;SDS011;63134;52.020;4.714;2023-03-05T14:10:44;3.25;;;1.25;;
22786;SDS011;63134;52.020;4.714;2023-03-05T14:13:28;3.45;;;1.25;;
22786;SDS011;63134;52.020;4.714;2023-03-05T14:16:25;8.25;;;1.30;;
22786;SDS011;63134;52.020;4.714;2023-03-05T14:22:33;1.65;;;0.90;;
22786;SDS011;63134;52.020;4.714;2023-03-05T14:25:37;4.13;;;1.40;;
22786;SDS011;63134;52.020;4.714;2023-03-05T14:28:27;2.08;;;1.00;;
22786;SDS011;63134;52.020;4.714;2023-03-05T14:31:14;2.30;;;0.80;;
22786;SDS011;63134;52.020;4.714;2023-03-05T14:34:02;4.22;;;1.10;;
22786;SDS011;63134;52.020;4.714;2023-03-05T14:36:50;1.70;;;0.80;;
22786;SDS011;63134;52.020;4.714;2023-03-05T14:43:03;3.13;;;1.08;;
22786;SDS011;63134;52.020;4.714;2023-03-05T14:45:50;3.20;;;1.05;;
22786;SDS011;63134;52.020;4.714;2023-03-05T14:48:35;2.15;;;1.08;;
22786;SDS011;63134;52.020;4.714;2023-03-05T14:51:21;4.10;;;1.00;;
22786;SDS011;63134;52.020;4.714;2023-03-05T14:54:16;5.00;;;1.20;;
22786;SDS011;63134;52.020;4.714;2023-03-05T14:57:06;2.25;;;1.10;;
22786;SDS011;63134;52.020;4.714;2023-03-05T14:59:52;2.20;;;0.90;;
22786;SDS011;63134;52.020;4.714;2023-03-05T15:02:43;3.60;;;1.17;;
22786;SDS011;63134;52.020;4.714;2023-03-05T15:05:35;3.92;;;1.48;;
22786;SDS011;63134;52.020;4.714;2023-03-05T15:08:22;6.45;;;1.33;;
22786;SDS011;63134;52.020;4.714;2023-03-05T15:11:10;3.58;;;1.00;;
22786;SDS011;63134;52.020;4.714;2023-03-05T15:13:56;3.65;;;1.20;;
22786;SDS011;63134;52.020;4.714;2023-03-05T15:16:42;5.28;;;1.33;;
22786;SDS011;63134;52.020;4.714;2023-03-05T15:19:30;3.33;;;1.10;;
22786;SDS011;63134;52.020;4.714;2023-03-05T15:22:18;3.25;;;1.30;;
22786;SDS011;63134;52.020;4.714;2023-03-05T15:25:04;4.00;;;1.40;;
22786;SDS011;63134;52.020;4.714;2023-03-05T15:27:49;4.05;;;1.40;;
22786;SDS011;63134;52.020;4.714;2023-03-05T15:30:36;2.08;;;1.20;;
22786;SDS011;63134;52.020;4.714;2023-03-05T15:33:28;5.47;;;1.60;;
22786;SDS011;63134;52.020;4.714;2023-03-05T15:36:13;4.32;;;1.35;;
22786;SDS011;63134;52.020;4.714;2023-03-05T15:38:59;6.97;;;1.30;;
22786;SDS011;63134;52.020;4.714;2023-03-05T15:41:47;5.65;;;1.30;;
22786;SDS011;63134;52.020;4.714;2023-03-05T15:44:33;4.35;;;1.48;;
22786;SDS011;63134;52.020;4.714;2023-03-05T15:47:18;4.05;;;1.27;;
22786;SDS011;63134;52.020;4.714;2023-03-05T15:50:04;2.35;;;1.40;;
22786;SDS011;63134;52.020;4.714;2023-03-05T15:52:51;3.65;;;1.27;;
22786;SDS011;63134;52.020;4.714;2023-03-05T15:55:37;4.70;;;2.08;;
22786;SDS011;63134;52.020;4.714;2023-03-05T15:58:23;7.93;;;1.63;;
22786;SDS011;63134;52.020;4.714;2023-03-05T16:01:10;4.50;;;1.30;;
22786;SDS011;63134;52.020;4.714;2023-03-05T16:03:56;4.07;;;1.40;;
22786;SDS011;63134;52.020;4.714;2023-03-05T16:06:42;2.10;;;1.08;;
22786;SDS011;63134;52.020;4.714;2023-03-05T16:09:30;4.65;;;1.65;;
22786;SDS011;63134;52.020;4.714;2023-03-05T16:12:21;6.03;;;1.77;;
22786;SDS011;63134;52.020;4.714;2023-03-05T16:15:13;2.10;;;1.35;;
22786;SDS011;63134;52.020;4.714;2023-03-05T16:18:01;6.95;;;1.80;;
22786;SDS011;63134;52.020;4.714;2023-03-05T16:20:50;4.28;;;1.48;;
22786;SDS011;63134;52.020;4.714;2023-03-05T16:23:36;3.15;;;1.30;;
22786;SDS011;63134;52.020;4.714;2023-03-05T16:26:25;2.92;;;1.40;;
22786;SDS011;63134;52.020;4.714;2023-03-05T16:29:11;5.70;;;1.35;;
22786;SDS011;63134;52.020;4.714;2023-03-05T16:31:57;5.03;;;1.40;;
22786;SDS011;63134;52.020;4.714;2023-03-05T16:34:44;5.03;;;1.55;;
22786;SDS011;63134;52.020;4.714;2023-03-05T16:37:46;3.08;;;1.15;;
22786;SDS011;63134;52.020;4.714;2023-03-05T16:40:34;6.50;;;1.30;;
22786;SDS011;63134;52.020;4.714;2023-03-05T16:43:41;2.92;;;1.25;;
22786;SDS011;63134;52.020;4.714;2023-03-05T16:46:28;4.15;;;1.27;;
22786;SDS011;63134;52.020;4.714;2023-03-05T16:49:18;6.68;;;1.30;;
22786;SDS011;63134;52.020;4.714;2023-03-05T16:52:04;2.13;;;1.00;;
22786;SDS011;63134;52.020;4.714;2023-03-05T16:55:03;3.25;;;1.17;;
22786;SDS011;63134;52.020;4.714;2023-03-05T16:57:49;7.63;;;1.73;;
22786;SDS011;63134;52.020;4.714;2023-03-05T17:00:34;3.55;;;1.40;;
22786;SDS011;63134;52.020;4.714;2023-03-05T17:03:20;6.68;;;1.50;;
22786;SDS011;63134;52.020;4.714;2023-03-05T17:06:17;3.00;;;1.52;;
22786;SDS011;63134;52.020;4.714;2023-03-05T17:09:07;6.22;;;1.50;;
22786;SDS011;63134;52.020;4.714;2023-03-05T17:11:58;3.17;;;1.65;;
22786;SDS011;63134;52.020;4.714;2023-03-05T17:14:43;6.63;;;1.60;;
22786;SDS011;63134;52.020;4.714;2023-03-05T17:17:29;6.70;;;2.10;;
22786;SDS011;63134;52.020;4.714;2023-03-05T17:20:15;8.13;;;1.92;;
22786;SDS011;63134;52.020;4.714;2023-03-05T17:23:04;3.97;;;1.38;;
22786;SDS011;63134;52.020;4.714;2023-03-05T17:25:50;2.67;;;1.10;;
22786;SDS011;63134;52.020;4.714;2023-03-05T17:28:36;4.45;;;1.17;;
22786;SDS011;63134;52.020;4.714;2023-03-05T17:31:22;2.85;;;1.35;;
22786;SDS011;63134;52.020;4.714;2023-03-05T17:34:07;2.85;;;1.30;;
22786;SDS011;63134;52.020;4.714;2023-03-05T17:36:53;3.45;;;0.95;;
22786;SDS011;63134;52.020;4.714;2023-03-05T17:39:39;3.85;;;1.52;;
22786;SDS011;63134;52.020;4.714;2023-03-05T17:42:25;3.80;;;1.17;;
22786;SDS011;63134;52.020;4.714;2023-03-05T17:45:10;2.72;;;1.10;;
22786;SDS011;63134;52.020;4.714;2023-03-05T17:47:56;2.08;;;1.20;;
22786;SDS011;63134;52.020;4.714;2023-03-05T17:50:43;3.08;;;1.02;;
22786;SDS011;63134;52.020;4.714;2023-03-05T17:53:29;2.30;;;0.98;;